Saint Pete Beach, FL

8:15 PM EDT on April 26, 2015 (GMT -0400)
Brightwater | | Change Station
CLOSE
Current Station
Personal Weather Station
Location: Saint Pete Beach, FL
Elevation: 0 ft
Nearby Weather Stations

Elev 0 ft 27.73 °N, 82.74 °W | Updated 13 minutes ago

Overcast
Overcast
80.6 °F
Feels Like 86 °F
N
14.0
Wind Variable Wind from West

Today
High -- | Low -- °F
--% Chance of Precip.
Yesterday
High -- | Low -- °F
Precip. -- in
6:55 AM 8:02 PM
First Quarter, 60% visible
Pressure 29.75 in
Visibility 8.0 miles
Clouds Mostly Cloudy 1900 ft
Heat Index 86 °F
Dew Point 74 °F
Humidity 81%
Rainfall 0.00 in
Snow Depth Not available.
UV 0 out of 12
Pollen 6.80 out of 12
Air Quality Not available.
Flu Activity Local Activity
METAR KSPG 262353Z 28010KT 8SM BKN019 28/24 A2975 RMK AO2 SLP074 T02780239 10289 20278 50002

More Conditions Fewer Conditions

Pressure 29.75 in
Visibility 8.0 miles
Clouds Mostly Cloudy 1900 ft
Heat Index 86 °F
Dew Point 74 °F
Humidity 81%
Rainfall 0.00 in
Snow Depth Not available.
UV 0 out of 12
Pollen 6.80 out of 12
Air Quality Not available.
Flu Activity Local Activity
METAR KSPG 262353Z 28010KT 8SM BKN019 28/24 A2975 RMK AO2 SLP074 T02780239 10289 20278 50002

More Conditions Fewer Conditions

The full scope of the disaster following a powerful 7.8-magnitude earthquake in Nepal may not come into view for days, but global charities are already sending emergency aid. Click to see how you can help.

10-Day Weather Forecast

Almanac

Astronomy

Apr. 26, 2015 Rise Set
Actual Time
Civil Twilight
Nautical Twilight
Astronomical Twilight
Moon
Length of Visible Light
Length of Day
Tomorrow will be .
, % of the Moon is Illuminated

Today's Extremes

State Highs State Lows

Community

WunderPhotos

Upload Photos

1,817,171 photos uploaded!

WunderBlogs® & News

Nearby

Air Quality

  Air Quality AQ Index Pollutant
Not available.

Snow Depth

Station Depth Elevation

Earthquake Activity

City Distance Mag. Time & Date
Minimum magnitude displayed is 2.5.

Coastal Water Temperatures

Place Temperature

Stations

Nearby Weather Stations

Station Location Temp. Windchill Dew Point Humidity Wind Precip. Elev Updated Type